Terminal Aerodrome Forecast
Issued by NWS Cleveland, OH

Home | Current Version | Previous Version | Graphics & Text | Print | Product List | Glossary On
Versions: 1 2 3 4 5 6 7 8 9 10 11 12 13 14 15 16 17 18 19 20 21 22 23 24
000
FTUS41 KCLE 270314 AAA
TAFMFD
TAF AMD
KMFD 270314Z 2703/2724 04006KT P6SM -RA SCT050 OVC080
     FM270400 04010KT 6SM -RA OVC045
     FM270600 05010KT 5SM -RA BR OVC025
     FM270900 10012G17KT 3SM -SHRA BR OVC008
     FM271200 14012G20KT 3SM SHRA BR VCTS OVC006CB
     FM271600 06012KT 5SM -SHRA BR VCTS OVC010CB
     FM272000 02012KT 3SM -SHRA BR VCTS OVC010CB=

USA.gov is the U.S. government's official web portal to all federal, state and local government web resources and services.